Time;durP1;ratioP1;P1;durP2;ratioP2;P2;SDS_P1;SDS_P2;PMS_P1;PMS_P2;Temp;Humidity;BMP_temperature;BMP_pressure;BME280_temperature;BME280_humidity;BME280_pressure;Samples;Min_cycle;Max_cycle;Signal;HPM_P1;HPM_P2
2022/07/26 00:00:16;;;;;;;5.95;3.40;;;17.00;99.90;;;;;;5112112;28;20415;-55
2022/07/26 00:02:42;;;;;;;6.43;3.35;;;16.90;99.90;;;;;;5112034;28;20433;-54
2022/07/26 00:05:08;;;;;;;5.38;2.90;;;16.80;99.90;;;;;;5112082;28;20027;-56
2022/07/26 00:07:34;;;;;;;6.47;3.13;;;16.70;99.90;;;;;;5112042;28;20111;-57
2022/07/26 00:10:00;;;;;;;5.35;3.15;;;16.60;99.90;;;;;;5112437;28;20055;-55
2022/07/26 00:12:25;;;;;;;3.58;2.95;;;16.70;99.90;;;;;;5111626;28;20035;-56
2022/07/26 00:14:51;;;;;;;4.93;3.20;;;16.70;99.90;;;;;;5111855;28;20027;-55
2022/07/26 00:17:17;;;;;;;4.75;3.00;;;16.70;99.90;;;;;;5111912;28;20019;-56
2022/07/26 00:19:43;;;;;;;4.70;2.97;;;16.60;99.90;;;;;;5111984;28;20093;-55
2022/07/26 00:24:53;;;;;;;;;;;16.50;99.90;;;;;;5112267;28;20031;-56
2022/07/26 00:27:18;;;;;;;5.63;3.38;;;16.50;99.90;;;;;;5112076;28;20348;-56
2022/07/26 00:29:44;;;;;;;5.95;3.20;;;16.40;99.90;;;;;;5111522;28;20498;-55
2022/07/26 00:32:10;;;;;;;5.78;2.80;;;16.30;99.90;;;;;;5112121;28;20047;-55
2022/07/26 00:34:35;;;;;;;4.60;2.92;;;16.40;99.90;;;;;;5111873;28;20028;-56
2022/07/26 00:37:01;;;;;;;4.72;3.10;;;16.40;99.90;;;;;;5111490;28;20439;-56
2022/07/26 00:39:27;;;;;;;8.05;3.20;;;16.40;99.90;;;;;;5111201;28;20107;-56
2022/07/26 00:41:53;;;;;;;5.68;3.40;;;16.40;99.90;;;;;;5112180;28;20028;-56
2022/07/26 00:44:19;;;;;;;7.30;3.67;;;16.40;99.90;;;;;;5111707;28;20024;-55
2022/07/26 00:46:45;;;;;;;5.72;3.70;;;16.40;99.90;;;;;;5111507;28;20034;-56
2022/07/26 00:49:11;;;;;;;5.63;3.08;;;16.40;99.90;;;;;;5111669;28;20051;-56
2022/07/26 00:51:37;;;;;;;5.13;3.60;;;16.40;99.90;;;;;;5114979;28;20019;-56
2022/07/26 00:54:04;;;;;;;4.45;3.05;;;16.50;99.90;;;;;;5114942;28;20365;-55
2022/07/26 00:56:32;;;;;;;5.45;3.40;;;16.50;99.90;;;;;;5115219;28;20038;-56
2022/07/26 00:58:57;;;;;;;6.55;3.65;;;16.40;99.90;;;;;;5115137;28;20535;-55
2022/07/26 01:01:23;;;;;;;5.53;3.10;;;16.30;99.90;;;;;;5115239;28;20027;-55
2022/07/26 01:03:51;;;;;;;5.35;3.47;;;16.30;99.90;;;;;;5115502;28;20606;-55
2022/07/26 01:06:18;;;;;;;6.22;3.50;;;16.20;99.90;;;;;;5114733;28;20027;-55
2022/07/26 01:08:43;;;;;;;5.32;3.95;;;16.20;99.90;;;;;;5114460;28;20031;-55
2022/07/26 01:11:09;;;;;;;4.95;3.90;;;16.00;99.90;;;;;;5114899;28;20034;-56
2022/07/26 01:13:35;;;;;;;3.90;3.15;;;15.90;99.90;;;;;;5114868;28;20495;-56
2022/07/26 01:16:01;;;;;;;5.93;3.90;;;15.90;99.90;;;;;;5115375;28;20026;-57
2022/07/26 01:18:27;;;;;;;5.65;4.07;;;15.90;99.90;;;;;;5114734;28;20027;-56
2022/07/26 01:20:53;;;;;;;6.78;3.95;;;15.90;99.90;;;;;;5114697;28;20020;-57
2022/07/26 01:23:19;;;;;;;5.93;3.70;;;15.90;99.90;;;;;;5114603;28;20392;-56
2022/07/26 01:25:45;;;;;;;5.10;3.40;;;15.90;99.90;;;;;;5115046;28;20023;-54
2022/07/26 01:28:11;;;;;;;4.32;3.22;;;15.90;99.90;;;;;;5114402;28;20035;-56
2022/07/26 01:30:36;;;;;;;5.20;3.25;;;15.90;99.90;;;;;;5114594;28;20015;-55
2022/07/26 01:33:02;;;;;;;6.45;3.90;;;15.90;99.90;;;;;;5114537;28;20484;-56
2022/07/26 01:35:29;;;;;;;6.43;3.75;;;15.70;99.90;;;;;;5114345;28;20103;-56
2022/07/26 01:37:55;;;;;;;7.03;3.70;;;15.70;99.90;;;;;;5113588;28;20063;-56
2022/07/26 01:40:21;;;;;;;7.22;3.63;;;15.80;99.90;;;;;;5096469;28;20429;-56
2022/07/26 01:42:46;;;;;;;5.45;3.80;;;15.80;99.90;;;;;;5114432;28;20035;-56
2022/07/26 01:45:12;;;;;;;7.78;3.90;;;15.70;99.90;;;;;;5114156;28;20067;-56
2022/07/26 01:47:39;;;;;;;5.07;3.40;;;15.50;99.90;;;;;;5114363;28;20089;-56
2022/07/26 01:50:06;;;;;;;5.20;3.53;;;15.50;99.90;;;;;;5114195;28;20035;-56
2022/07/26 01:52:34;;;;;;;6.35;3.55;;;15.50;99.90;;;;;;5113784;28;20064;-55
2022/07/26 01:55:00;;;;;;;5.93;3.28;;;15.50;99.90;;;;;;5114108;28;20031;-56
2022/07/26 01:57:25;;;;;;;4.75;3.30;;;15.40;99.90;;;;;;5114030;28;20440;-56
2022/07/26 01:59:51;;;;;;;4.63;3.28;;;15.30;99.90;;;;;;5114417;28;20021;-56
2022/07/26 02:02:17;;;;;;;5.20;3.70;;;15.20;99.90;;;;;;5112788;28;20035;-56
2022/07/26 02:04:57;;;;;;;4.78;2.80;;;15.20;99.90;;;;;;5113785;28;20437;-55
2022/07/26 02:07:28;;;;;;;5.93;3.70;;;15.20;99.90;;;;;;5113480;28;20063;-57
2022/07/26 02:09:55;;;;;;;5.15;3.58;;;15.20;99.90;;;;;;5095696;28;20023;-56
2022/07/26 02:12:21;;;;;;;4.35;3.00;;;15.10;99.90;;;;;;5113755;28;20069;-56
2022/07/26 02:14:47;;;;;;;4.85;3.42;;;15.10;99.90;;;;;;5113952;28;20020;-57
2022/07/26 02:17:13;;;;;;;4.05;3.33;;;15.20;99.90;;;;;;5113645;28;20107;-56
2022/07/26 02:19:39;;;;;;;6.65;3.47;;;15.10;99.90;;;;;;5113561;28;20028;-56
2022/07/26 02:22:05;;;;;;;5.78;4.10;;;15.00;99.90;;;;;;5113198;28;20031;-55
2022/07/26 02:24:31;;;;;;;5.78;3.90;;;15.00;99.90;;;;;;5113445;28;20063;-56
2022/07/26 02:26:58;;;;;;;5.47;3.97;;;15.00;99.90;;;;;;5113269;28;20031;-55
2022/07/26 02:29:25;;;;;;;4.70;3.60;;;15.00;99.90;;;;;;5113438;28;20031;-56
2022/07/26 02:31:51;;;;;;;6.13;3.65;;;15.10;99.90;;;;;;5113687;28;20469;-56
2022/07/26 02:34:17;;;;;;;5.03;3.42;;;15.10;99.90;;;;;;5113277;28;20099;-56
2022/07/26 02:36:43;;;;;;;4.63;3.38;;;15.10;99.90;;;;;;5094520;28;20110;-56
2022/07/26 02:39:09;;;;;;;5.60;3.60;;;15.10;99.90;;;;;;5113550;28;20024;-55
2022/07/26 02:41:35;;;;;;;7.38;3.83;;;15.10;99.90;;;;;;5113237;28;20103;-57
2022/07/26 02:44:00;;;;;;;7.32;4.22;;;15.10;99.90;;;;;;5113340;28;20362;-56
2022/07/26 02:46:26;;;;;;;6.55;3.90;;;15.00;99.90;;;;;;5113031;28;20392;-57
2022/07/26 02:48:52;;;;;;;4.72;3.50;;;15.10;99.90;;;;;;5113347;28;20042;-57
2022/07/26 02:51:17;;;;;;;7.80;3.80;;;15.10;99.90;;;;;;5112791;28;20015;-57
2022/07/26 02:53:43;;;;;;;6.40;4.07;;;15.10;99.90;;;;;;5112976;28;20040;-57
2022/07/26 02:56:09;;;;;;;5.88;3.92;;;15.10;99.90;;;;;;5113416;28;20095;-56
2022/07/26 02:58:36;;;;;;;6.40;3.90;;;15.00;99.90;;;;;;5112906;28;20502;-55
2022/07/26 03:01:03;;;;;;;5.47;3.70;;;14.90;99.90;;;;;;5112807;28;20115;-56
2022/07/26 03:03:28;;;;;;;7.57;3.60;;;14.90;99.90;;;;;;5112694;28;20027;-57
2022/07/26 03:05:54;;;;;;;4.70;3.70;;;14.90;99.90;;;;;;5112545;28;20472;-55
2022/07/26 03:08:20;;;;;;;5.47;3.75;;;15.00;99.90;;;;;;5112549;28;20070;-56
2022/07/26 03:10:46;;;;;;;5.43;3.95;;;14.90;99.90;;;;;;5112473;28;20074;-56
2022/07/26 03:13:11;;;;;;;6.25;4.40;;;14.90;99.90;;;;;;5112782;28;20028;-56
2022/07/26 03:15:37;;;;;;;8.95;4.47;;;14.80;99.90;;;;;;5112525;28;20450;-56
2022/07/26 03:18:03;;;;;;;4.40;4.00;;;14.70;99.90;;;;;;5112643;28;20024;-55
2022/07/26 03:20:29;;;;;;;6.28;4.40;;;14.80;99.90;;;;;;5112230;28;20028;-56
2022/07/26 03:22:54;;;;;;;7.35;4.65;;;14.80;99.90;;;;;;5094295;28;20027;-56
2022/07/26 03:25:20;;;;;;;4.30;3.50;;;14.80;99.90;;;;;;5112552;28;20333;-56
2022/07/26 03:27:46;;;;;;;6.15;4.03;;;14.80;99.90;;;;;;5112398;28;20071;-56
2022/07/26 03:30:12;;;;;;;7.47;4.30;;;14.80;99.90;;;;;;5112120;28;20027;-56
2022/07/26 03:32:38;;;;;;;6.45;4.50;;;14.70;99.90;;;;;;5094523;28;20498;-56
2022/07/26 03:35:05;;;;;;;9.20;5.90;;;14.60;99.90;;;;;;5111896;28;20028;-57
2022/07/26 03:37:31;;;;;;;10.60;7.10;;;14.50;99.90;;;;;;5111837;28;20051;-56
2022/07/26 03:39:57;;;;;;;14.02;6.88;;;14.50;99.90;;;;;;5112728;28;20030;-56
2022/07/26 03:42:22;;;;;;;13.00;7.47;;;14.30;99.90;;;;;;5112175;28;20031;-56
2022/07/26 03:44:48;;;;;;;11.57;7.13;;;14.10;99.90;;;;;;5112389;28;20033;-56
2022/07/26 03:47:14;;;;;;;10.00;7.30;;;14.10;99.90;;;;;;5112315;28;20028;-56
2022/07/26 03:49:39;;;;;;;9.57;6.18;;;14.10;99.90;;;;;;5111675;28;20070;-55
2022/07/26 03:52:05;;;;;;;9.15;6.32;;;14.10;99.90;;;;;;5093981;28;20058;-56
2022/07/26 03:54:31;;;;;;;8.20;5.78;;;14.00;99.90;;;;;;5111978;28;20073;-55
2022/07/26 03:56:57;;;;;;;9.98;5.85;;;14.00;99.90;;;;;;5111971;28;20032;-57
2022/07/26 03:59:24;;;;;;;8.85;6.50;;;14.20;99.90;;;;;;5112634;28;20106;-56
2022/07/26 04:01:50;;;;;;;9.93;6.38;;;14.20;99.90;;;;;;5112084;28;20026;-56
2022/07/26 04:04:17;;;;;;;9.27;6.13;;;14.20;99.90;;;;;;5093374;28;20084;-56
2022/07/26 04:06:44;;;;;;;7.15;6.03;;;14.10;99.90;;;;;;5111944;28;20055;-57
2022/07/26 04:09:11;;;;;;;5.55;4.95;;;14.10;99.90;;;;;;5112317;28;20032;-57
2022/07/26 04:11:36;;;;;;;8.00;5.15;;;14.10;99.90;;;;;;5112358;28;20028;-57
2022/07/26 04:14:03;;;;;;;6.80;5.80;;;14.20;99.90;;;;;;5111948;28;20073;-55
2022/07/26 04:16:28;;;;;;;6.85;5.40;;;14.20;99.90;;;;;;5111865;28;20024;-56
2022/07/26 04:18:54;;;;;;;7.28;5.20;;;14.20;99.90;;;;;;5093566;28;20491;-56
2022/07/26 04:21:21;;;;;;;5.95;5.35;;;14.20;99.90;;;;;;5112313;28;20027;-55
2022/07/26 04:23:46;;;;;;;7.30;4.90;;;14.20;99.90;;;;;;5111926;28;20553;-56
2022/07/26 04:26:13;;;;;;;7.85;5.20;;;14.10;99.90;;;;;;5114922;28;20146;-56
2022/07/26 04:28:39;;;;;;;5.70;4.75;;;14.00;99.90;;;;;;5115903;28;20036;-56
2022/07/26 04:31:06;;;;;;;7.80;5.13;;;14.00;99.90;;;;;;5115651;28;20041;-57
2022/07/26 04:33:32;;;;;;;7.10;5.30;;;13.80;99.90;;;;;;5115428;28;20024;-56
2022/07/26 04:35:58;;;;;;;9.02;6.43;;;13.80;99.90;;;;;;5115510;28;20038;-56
2022/07/26 04:38:24;;;;;;;7.68;5.90;;;13.90;99.90;;;;;;5115838;28;20028;-57
2022/07/26 04:40:51;;;;;;;14.48;8.60;;;13.70;99.90;;;;;;5097080;28;20024;-57
2022/07/26 04:43:17;;;;;;;11.27;8.10;;;13.60;99.90;;;;;;5097144;28;20393;-56
2022/07/26 04:45:44;;;;;;;12.50;8.20;;;13.60;99.90;;;;;;5115346;28;20024;-56
2022/07/26 04:48:10;;;;;;;12.10;8.50;;;13.50;99.90;;;;;;5115542;28;20039;-56
2022/07/26 04:50:36;;;;;;;12.93;8.90;;;13.40;99.90;;;;;;5115475;28;20016;-57
2022/07/26 04:53:02;;;;;;;11.48;8.13;;;13.20;99.90;;;;;;5115335;28;20031;-56
2022/07/26 04:55:27;;;;;;;10.35;9.15;;;13.20;99.90;;;;;;5115317;28;20016;-56
2022/07/26 04:57:53;;;;;;;9.50;8.52;;;13.10;99.90;;;;;;5115038;28;20423;-56
2022/07/26 05:00:23;;;;;;;12.05;9.32;;;13.10;99.90;;;;;;5114988;28;20500;-56
2022/07/26 05:02:50;;;;;;;8.93;8.00;;;13.10;99.90;;;;;;5115530;28;20119;-54
2022/07/26 05:05:16;;;;;;;8.98;8.07;;;13.10;99.90;;;;;;5115107;28;20016;-56
2022/07/26 05:07:47;;;;;;;10.48;7.72;;;13.20;99.90;;;;;;5096639;28;20044;-56
2022/07/26 05:10:15;;;;;;;9.13;8.25;;;13.30;99.90;;;;;;5115253;28;20099;-56
2022/07/26 05:12:41;;;;;;;9.90;7.38;;;13.30;99.90;;;;;;5114916;28;20036;-56
2022/07/26 05:15:08;;;;;;;13.00;9.23;;;13.40;99.90;;;;;;5114596;28;20019;-53
2022/07/26 05:17:36;;;;;;;14.75;10.23;;;13.40;99.90;;;;;;5115085;28;20037;-56
2022/07/26 05:20:03;;;;;;;17.35;10.45;;;13.30;99.90;;;;;;5114953;28;20074;-56
2022/07/26 05:22:28;;;;;;;15.90;9.88;;;13.30;99.90;;;;;;5114846;28;20027;-56
2022/07/26 05:24:54;;;;;;;11.50;9.27;;;13.30;99.90;;;;;;5114741;28;20388;-56
2022/07/26 05:27:20;;;;;;;9.20;8.27;;;13.40;99.90;;;;;;5114467;28;20109;-55
2022/07/26 05:29:45;;;;;;;10.57;9.00;;;13.40;99.90;;;;;;5114297;28;20027;-56
2022/07/26 05:32:11;;;;;;;17.02;10.35;;;13.50;99.90;;;;;;5114533;28;20019;-54
2022/07/26 05:34:37;;;;;;;15.50;9.45;;;13.60;99.90;;;;;;5115070;28;20107;-56
2022/07/26 05:37:03;;;;;;;12.15;9.75;;;13.60;99.90;;;;;;5095691;28;20527;-55
2022/07/26 05:39:28;;;;;;;15.40;10.45;;;13.70;99.90;;;;;;5114182;28;20031;-56
2022/07/26 05:41:54;;;;;;;12.68;9.70;;;13.70;99.90;;;;;;5114875;28;20099;-56
2022/07/26 05:44:22;;;;;;;11.88;10.05;;;13.70;99.90;;;;;;5095724;28;20035;-55
2022/07/26 05:46:47;;;;;;;12.63;9.88;;;13.70;99.90;;;;;;5114122;28;20105;-55
2022/07/26 05:49:16;;;;;;;12.00;9.10;;;13.90;99.90;;;;;;5114392;28;20036;-56
2022/07/26 05:51:42;;;;;;;14.23;9.90;;;14.00;99.90;;;;;;5114221;28;20016;-54
2022/07/26 05:54:07;;;;;;;13.18;9.75;;;14.20;99.90;;;;;;5114633;28;20054;-56
2022/07/26 05:56:33;;;;;;;9.85;8.68;;;14.30;99.90;;;;;;5114074;28;20032;-56
2022/07/26 05:58:59;;;;;;;11.85;9.50;;;14.50;99.90;;;;;;5113824;28;20035;-57
2022/07/26 06:01:24;;;;;;;12.60;9.48;;;14.70;99.90;;;;;;5114413;28;20027;-57
2022/07/26 06:03:50;;;;;;;14.70;10.23;;;15.00;99.90;;;;;;5114078;28;20047;-54
2022/07/26 06:06:16;;;;;;;17.17;10.95;;;15.20;99.90;;;;;;5113956;28;20388;-55
2022/07/26 06:08:42;;;;;;;19.25;11.85;;;15.30;99.90;;;;;;5113929;28;20031;-56
2022/07/26 06:11:07;;;;;;;12.43;10.13;;;15.40;99.90;;;;;;5095565;28;20030;-56
2022/07/26 06:13:33;;;;;;;11.85;9.73;;;15.50;99.90;;;;;;5113351;28;20516;-56
2022/07/26 06:16:00;;;;;;;12.70;9.65;;;15.50;99.90;;;;;;5114219;28;20090;-56
2022/07/26 06:18:25;;;;;;;15.10;9.18;;;15.60;99.90;;;;;;5113740;28;20113;-57
2022/07/26 06:20:51;;;;;;;11.48;9.30;;;15.60;99.90;;;;;;5113653;28;20033;-57
2022/07/26 06:23:17;;;;;;;9.70;7.68;;;15.70;99.90;;;;;;5113620;28;20422;-57
2022/07/26 06:25:43;;;;;;;9.57;7.88;;;16.10;99.90;;;;;;5113293;28;20024;-56
2022/07/26 06:28:09;;;;;;;8.45;7.47;;;16.40;99.90;;;;;;5113361;28;20027;-56
2022/07/26 06:30:39;;;;;;;8.18;6.95;;;16.60;99.90;;;;;;5113498;28;20022;-56
2022/07/26 06:33:06;;;;;;;10.82;6.97;;;16.80;99.90;;;;;;5113339;28;20028;-56
2022/07/26 06:35:34;;;;;;;7.03;6.40;;;17.30;99.90;;;;;;5113401;28;20023;-57
2022/07/26 06:38:00;;;;;;;7.63;6.82;;;17.40;99.90;;;;;;5112780;28;20062;-57
2022/07/26 06:40:26;;;;;;;10.23;6.57;;;17.30;99.90;;;;;;5113149;28;20019;-57
2022/07/26 06:42:52;;;;;;;8.20;6.32;;;17.10;99.90;;;;;;5113100;28;20089;-55
2022/07/26 06:45:18;;;;;;;8.80;7.03;;;17.10;99.90;;;;;;5113087;28;20099;-57
2022/07/26 06:47:43;;;;;;;8.40;6.82;;;17.30;99.90;;;;;;5112324;28;20043;-56
2022/07/26 06:50:10;;;;;;;11.23;7.00;;;17.50;99.90;;;;;;5113130;28;20023;-57
2022/07/26 06:52:35;;;;;;;8.48;6.88;;;18.00;99.90;;;;;;5113157;28;20026;-56
2022/07/26 06:55:02;;;;;;;9.98;6.38;;;18.60;99.90;;;;;;5094848;28;20387;-57
2022/07/26 06:57:28;;;;;;;9.63;6.20;;;19.00;99.90;;;;;;5112651;28;20620;-57
2022/07/26 06:59:53;;;;;;;8.80;5.47;;;19.40;99.90;;;;;;5113443;28;20106;-57
2022/07/26 07:02:19;;;;;;;8.85;5.20;;;20.40;99.90;;;;;;5112907;28;20020;-57
2022/07/26 07:04:45;;;;;;;5.53;4.97;;;20.20;99.90;;;;;;5112689;28;20027;-57
2022/07/26 07:07:11;;;;;;;9.57;5.05;;;20.90;99.90;;;;;;5112545;28;20097;-56
2022/07/26 07:09:37;;;;;;;10.85;4.82;;;21.10;99.90;;;;;;5112633;28;20422;-57
2022/07/26 07:12:05;;;;;;;6.55;4.05;;;22.50;99.90;;;;;;5112424;28;20027;-60
2022/07/26 07:14:31;;;;;;;9.30;4.20;;;22.00;99.90;;;;;;5112606;28;20030;-57
2022/07/26 07:16:56;;;;;;;6.78;4.20;;;22.80;99.90;;;;;;5112328;28;20023;-57
2022/07/26 07:19:22;;;;;;;9.13;4.07;;;22.90;99.90;;;;;;5113042;28;20403;-57
2022/07/26 07:21:48;;;;;;;10.55;3.70;;;23.00;99.90;;;;;;5112477;28;20031;-57
2022/07/26 07:24:14;;;;;;;5.55;3.42;;;23.00;99.90;;;;;;5112396;28;20099;-57
2022/07/26 07:26:41;;;;;;;8.70;3.50;;;23.00;99.90;;;;;;5093398;28;20055;-57
2022/07/26 07:29:11;;;;;;;7.78;3.40;;;24.10;99.90;;;;;;5112577;28;20497;-57
2022/07/26 07:31:37;;;;;;;8.52;3.17;;;24.40;99.90;;;;;;5112320;28;20044;-57
2022/07/26 07:34:03;;;;;;;6.90;3.03;;;24.20;99.90;;;;;;5112532;28;20024;-57
2022/07/26 07:36:28;;;;;;;8.93;3.22;;;24.30;99.90;;;;;;5095587;28;20130;-57
2022/07/26 07:38:54;;;;;;;11.75;3.47;;;24.20;99.90;;;;;;5106482;28;20023;-57
2022/07/26 07:41:20;;;;;;;8.23;3.08;;;23.60;99.90;;;;;;5111831;28;20484;-57
2022/07/26 07:43:45;;;;;;;9.15;3.55;;;23.30;99.90;;;;;;5094522;28;20012;-57
2022/07/26 07:46:11;;;;;;;7.88;3.00;;;24.20;99.90;;;;;;5107644;28;20042;-57
2022/07/26 07:48:39;;;;;;;7.45;2.90;;;24.00;99.90;;;;;;5084297;28;20036;-57
2022/07/26 07:51:08;;;;;;;6.85;2.97;;;24.00;99.90;;;;;;5102762;28;20020;-57
2022/07/26 07:53:34;;;;;;;7.63;2.60;;;24.10;99.90;;;;;;5103461;28;20085;-56
2022/07/26 07:56:00;;;;;;;6.50;2.78;;;24.30;99.90;;;;;;5090647;28;20024;-57
2022/07/26 07:58:27;;;;;;;6.15;3.03;;;24.20;99.90;;;;;;5099019;28;20045;-57
2022/07/26 08:00:53;;;;;;;5.60;2.50;;;24.00;99.90;;;;;;5104585;28;20050;-57
2022/07/26 08:03:19;;;;;;;8.65;2.58;;;24.00;99.90;;;;;;5116342;28;20449;-57
2022/07/26 08:05:46;;;;;;;5.97;2.40;;;23.90;99.90;;;;;;5106384;28;20031;-57
2022/07/26 08:08:12;;;;;;;6.15;2.42;;;24.00;99.90;;;;;;5102026;28;20526;-57
2022/07/26 08:10:37;;;;;;;5.03;2.35;;;24.10;99.90;;;;;;5095789;28;20024;-57
2022/07/26 08:13:03;;;;;;;6.20;2.53;;;24.40;99.90;;;;;;5095437;28;20028;-57
2022/07/26 08:15:29;;;;;;;4.72;2.15;;;24.90;99.90;;;;;;5096014;28;20111;-57
2022/07/26 08:17:54;;;;;;;6.25;2.30;;;26.20;99.90;;;;;;5095483;28;20046;-57
2022/07/26 08:20:20;;;;;;;5.00;2.33;;;27.40;99.90;;;;;;5095301;28;20028;-57
2022/07/26 08:22:46;;;;;;;6.05;2.60;;;28.50;99.90;;;;;;5097995;28;20019;-57
2022/07/26 08:25:11;;;;;;;5.88;2.20;;;28.20;96.90;;;;;;5105976;28;20024;-58
2022/07/26 08:27:37;;;;;;;5.97;2.25;;;29.50;96.20;;;;;;5104549;28;20063;-57
2022/07/26 08:30:04;;;;;;;8.07;2.63;;;30.80;93.90;;;;;;5104684;28;20048;-57
2022/07/26 08:32:30;;;;;;;6.25;1.80;;;29.90;94.60;;;;;;5102694;28;20476;-58
2022/07/26 08:34:56;;;;;;;3.78;1.85;;;29.10;95.70;;;;;;5094664;28;20024;-57
2022/07/26 08:37:22;;;;;;;4.30;1.80;;;;;;;;;;5100857;28;20119;-57
2022/07/26 08:39:48;;;;;;;6.45;2.10;;;31.00;93.10;;;;;;5106666;28;20032;-57
2022/07/26 08:42:16;;;;;;;3.80;1.55;;;32.40;91.50;;;;;;5100403;28;20020;-55
2022/07/26 08:44:47;;;;;;;4.65;1.77;;;31.80;89.70;;;;;;5094396;28;20032;-55
2022/07/26 08:47:18;;;;;;;3.83;1.77;;;30.60;91.80;;;;;;5103911;28;20030;-55
2022/07/26 08:49:44;;;;;;;4.40;1.92;;;30.50;93.30;;;;;;5103462;28;20499;-55
2022/07/26 08:52:12;;;;;;;4.97;2.00;;;29.80;91.20;;;;;;5103681;28;20026;-55
2022/07/26 08:54:46;;;;;;;3.70;1.60;;;29.00;90.60;;;;;;5092933;28;20024;-55
2022/07/26 08:57:11;;;;;;;4.38;1.70;;;29.20;92.90;;;;;;5103417;28;20106;-55
2022/07/26 08:59:38;;;;;;;4.78;1.70;;;29.40;92.70;;;;;;5111677;28;20091;-55
2022/07/26 09:02:09;;;;;;;3.05;1.65;;;29.50;92.00;;;;;;5104475;28;20111;-55
2022/07/26 09:04:40;;;;;;;7.38;1.52;;;29.40;90.80;;;;;;5105319;28;20052;-55
2022/07/26 09:07:10;;;;;;;6.38;1.90;;;29.30;90.40;;;;;;5102576;28;20088;-55
2022/07/26 09:09:55;;;;;;;4.95;2.00;;;30.00;91.80;;;;;;5101828;28;20107;-55
2022/07/26 09:12:22;;;;;;;4.32;1.80;;;31.10;89.80;;;;;;5088705;28;20025;-55
2022/07/26 09:14:48;;;;;;;3.40;1.50;;;31.80;89.90;;;;;;5095577;28;20042;-55
2022/07/26 09:17:18;;;;;;;3.53;1.13;;;32.30;84.40;;;;;;5106746;28;20139;-56
2022/07/26 09:20:00;;;;;;;4.78;1.30;;;31.10;86.30;;;;;;5095815;28;20032;-55
2022/07/26 09:22:26;;;;;;;3.30;1.37;;;31.00;84.60;;;;;;5096302;28;20459;-56
2022/07/26 09:24:52;;;;;;;3.75;1.17;;;30.80;87.30;;;;;;5086490;28;20047;-57
2022/07/26 09:27:18;;;;;;;2.67;1.30;;;31.30;85.20;;;;;;5091136;28;20035;-57
2022/07/26 09:29:54;;;;;;;3.25;1.60;;;32.60;86.30;;;;;;5109818;28;20484;-57
2022/07/26 09:32:21;;;;;;;2.13;1.23;;;34.50;84.70;;;;;;5104777;28;20099;-57
2022/07/26 09:34:52;;;;;;;2.45;1.58;;;36.10;78.90;;;;;;5103643;28;20039;-58
2022/07/26 09:37:35;;;;;;;3.78;1.40;;;37.60;71.60;;;;;;5108807;28;20032;-57
2022/07/26 09:40:05;;;;;;;3.90;1.40;;;38.00;70.60;;;;;;5113868;28;20019;-57
2022/07/26 09:42:31;;;;;;;2.50;1.40;;;36.50;72.60;;;;;;5113345;28;20202;-57
2022/07/26 09:44:57;;;;;;;4.18;1.52;;;35.10;74.80;;;;;;5113718;28;20103;-57
2022/07/26 09:47:37;;;;;;;4.03;1.52;;;33.80;75.60;;;;;;5113419;28;20496;-57
2022/07/26 09:50:13;;;;;;;2.53;1.50;;;33.40;76.60;;;;;;5112335;28;20081;-57
2022/07/26 09:52:39;;;;;;;2.80;1.48;;;33.20;77.90;;;;;;5111396;28;20020;-58
2022/07/26 09:55:07;;;;;;;3.17;1.40;;;33.10;78.10;;;;;;5113227;28;20024;-57
2022/07/26 09:57:34;;;;;;;3.83;1.52;;;33.00;78.90;;;;;;5113928;28;20549;-58
2022/07/26 10:00:04;;;;;;;2.35;1.00;;;32.70;79.70;;;;;;5113961;28;20076;-58
2022/07/26 10:02:31;;;;;;;3.05;1.33;;;32.60;77.10;;;;;;5113051;28;20032;-57
2022/07/26 10:04:57;;;;;;;3.78;1.35;;;31.90;78.80;;;;;;5112996;28;20036;-57
2022/07/26 10:07:23;;;;;;;2.67;1.10;;;31.80;79.10;;;;;;5113871;28;20078;-57
2022/07/26 10:10:03;;;;;;;2.70;1.20;;;31.90;80.20;;;;;;5113566;28;20081;-57
2022/07/26 10:12:31;;;;;;;3.15;1.30;;;31.70;79.40;;;;;;5113785;28;20031;-57
2022/07/26 10:14:57;;;;;;;3.10;1.30;;;31.30;80.00;;;;;;5113521;28;20059;-58
2022/07/26 10:17:29;;;;;;;1.90;1.10;;;30.50;79.70;;;;;;5113543;28;20055;-57
2022/07/26 10:19:56;;;;;;;4.13;1.45;;;30.30;83.50;;;;;;5113643;28;20358;-57
2022/07/26 10:22:32;;;;;;;3.75;1.30;;;30.60;80.80;;;;;;5112795;28;20032;-57
2022/07/26 10:25:18;;;;;;;10.15;1.50;;;30.00;81.80;;;;;;5113517;28;20434;-57
2022/07/26 10:27:49;;;;;;;4.00;1.80;;;30.40;84.10;;;;;;5099437;28;20036;-58
2022/07/26 10:30:17;;;;;;;3.75;1.40;;;30.50;82.80;;;;;;5113083;28;20027;-58
2022/07/26 10:33:09;;;;;;;2.72;1.20;;;30.50;82.10;;;;;;5112974;28;20073;-58
2022/07/26 10:35:43;;;;;;;3.80;1.60;;;30.40;82.90;;;;;;5100455;28;20032;-57
2022/07/26 10:38:13;;;;;;;2.42;1.40;;;30.60;80.60;;;;;;5103561;28;20043;-57
2022/07/26 10:40:59;;;;;;;4.93;1.60;;;30.10;81.60;;;;;;5109818;28;20020;-58
2022/07/26 10:43:32;;;;;;;5.47;1.75;;;29.90;81.60;;;;;;5069303;28;20413;-58
2022/07/26 10:46:17;;;;;;;4.72;1.70;;;29.90;80.80;;;;;;5068581;28;20536;-55
2022/07/26 10:49:00;;;;;;;6.20;1.60;;;30.60;79.10;;;;;;5068829;28;20508;-54
2022/07/26 10:51:33;;;;;;;3.67;1.42;;;29.90;81.10;;;;;;5068917;28;20028;-55
2022/07/26 10:54:04;;;;;;;5.10;1.40;;;30.70;81.00;;;;;;5069215;28;20389;-55
2022/07/26 10:56:30;;;;;;;3.85;1.60;;;31.10;78.70;;;;;;5069357;28;20446;-55
2022/07/26 10:58:56;;;;;;;3.10;1.65;;;31.20;80.60;;;;;;5068889;28;20025;-55
2022/07/26 11:01:21;;;;;;;3.08;1.65;;;30.40;78.50;;;;;;5069009;28;20163;-55
2022/07/26 11:03:47;;;;;;;3.92;1.80;;;30.80;80.10;;;;;;5067360;28;20107;-55
2022/07/26 11:06:18;;;;;;;2.92;1.38;;;30.80;80.00;;;;;;5068650;28;20094;-55
2022/07/26 11:08:46;;;;;;;2.80;1.40;;;30.70;80.70;;;;;;5068874;28;20044;-55
2022/07/26 11:11:12;;;;;;;4.10;1.35;;;31.00;80.60;;;;;;5067530;28;20023;-55
2022/07/26 11:13:39;;;;;;;2.63;1.20;;;31.40;81.40;;;;;;5069054;28;20040;-55
2022/07/26 11:16:09;;;;;;;6.40;1.85;;;30.90;79.00;;;;;;5068536;28;20028;-55
2022/07/26 11:18:36;;;;;;;3.63;1.50;;;29.60;79.10;;;;;;5068308;28;20032;-55
2022/07/26 11:21:08;;;;;;;2.58;1.40;;;30.10;82.80;;;;;;5068564;28;20078;-55
2022/07/26 11:23:36;;;;;;;3.03;1.48;;;30.20;79.80;;;;;;5068512;28;20041;-55
2022/07/26 11:26:03;;;;;;;3.47;1.42;;;29.90;78.80;;;;;;5068549;28;20389;-55
2022/07/26 11:28:41;;;;;;;3.90;1.70;;;29.10;80.80;;;;;;5068619;28;20033;-56
2022/07/26 11:31:06;;;;;;;2.60;1.40;;;30.10;82.80;;;;;;5067115;28;20083;-57
2022/07/26 11:33:41;;;;;;;2.58;1.48;;;30.80;80.50;;;;;;5067963;28;20489;-58
2022/07/26 11:36:08;;;;;;;3.88;1.50;;;31.50;79.60;;;;;;5068527;28;20023;-58
2022/07/26 11:38:52;;;;;;;4.20;1.40;;;31.70;79.50;;;;;;5068267;28;20028;-57
2022/07/26 11:41:23;;;;;;;3.35;1.40;;;31.30;80.70;;;;;;5068014;28;20020;-57
2022/07/26 11:43:50;;;;;;;2.83;1.60;;;31.40;80.00;;;;;;5068237;28;20070;-58
2022/07/26 11:46:16;;;;;;;3.97;1.48;;;31.00;80.80;;;;;;5067827;28;20028;-58
2022/07/26 11:48:53;;;;;;;3.35;1.70;;;31.10;80.40;;;;;;5068158;28;20385;-58
2022/07/26 11:51:23;;;;;;;3.38;1.60;;;31.60;80.70;;;;;;5068102;28;20036;-57
2022/07/26 11:53:50;;;;;;;6.63;1.60;;;31.60;76.90;;;;;;5060610;28;20111;-58
2022/07/26 11:56:19;;;;;;;5.15;1.50;;;30.90;77.30;;;;;;5054726;28;20029;-55
2022/07/26 11:58:47;;;;;;;2.42;1.58;;;30.70;76.80;;;;;;5054649;28;20028;-55
2022/07/26 12:01:15;;;;;;;3.35;1.40;;;30.90;78.10;;;;;;5054397;28;20048;-55
2022/07/26 12:03:42;;;;;;;4.03;1.60;;;30.50;76.30;;;;;;5054470;28;20029;-55
2022/07/26 12:06:11;;;;;;;2.95;1.40;;;31.30;78.70;;;;;;5054373;28;20086;-55
2022/07/26 12:08:42;;;;;;;2.95;1.42;;;31.30;76.60;;;;;;5054709;28;20524;-55
2022/07/26 12:11:09;;;;;;;4.03;1.30;;;31.10;77.00;;;;;;5054022;28;20021;-55
2022/07/26 12:13:47;;;;;;;3.53;1.40;;;31.20;78.00;;;;;;5054190;28;20044;-55
2022/07/26 12:16:32;;;;;;;2.63;1.33;;;31.50;77.40;;;;;;5053842;28;20032;-55
2022/07/26 12:18:57;;;;;;;3.28;1.40;;;31.70;77.10;;;;;;5054506;28;20033;-55
2022/07/26 12:21:37;;;;;;;2.58;1.40;;;31.20;77.00;;;;;;5054026;28;20052;-55
2022/07/26 12:24:03;;;;;;;2.22;1.13;;;31.00;75.90;;;;;;5054165;28;20029;-55
2022/07/26 12:26:29;;;;;;;2.70;1.30;;;30.50;74.80;;;;;;5053834;28;20347;-55
2022/07/26 12:28:56;;;;;;;4.78;1.70;;;30.30;76.40;;;;;;5053944;28;20017;-55
2022/07/26 12:31:30;;;;;;;3.97;1.30;;;29.20;75.40;;;;;;5053690;28;20031;-55
2022/07/26 12:33:56;;;;;;;3.83;1.20;;;30.30;76.90;;;;;;5054340;28;20432;-55
2022/07/26 12:36:23;;;;;;;1.13;1.00;;;31.60;75.00;;;;;;5053806;28;20025;-55
2022/07/26 12:38:52;;;;;;;1.85;1.10;;;30.90;75.50;;;;;;5053742;28;20405;-55
2022/07/26 12:41:51;;;;;;;2.90;1.20;;;31.20;73.80;;;;;;5053396;28;20439;-55
2022/07/26 12:44:17;;;;;;;2.50;1.10;;;31.30;75.70;;;;;;5031591;28;20045;-55
2022/07/26 12:46:46;;;;;;;2.85;1.20;;;31.40;75.10;;;;;;5031335;28;20025;-55
2022/07/26 12:49:12;;;;;;;1.90;1.20;;;30.90;72.70;;;;;;5031534;28;20041;-55